Waterbury, CT

12:32 PM EST on February 10, 2016 (GMT -0500)
Overlook | | Change Station
CLOSE
Current Station
Personal Weather Station
Location: Waterbury, CT
Elevation: 577 ft
Nearby Weather Stations

Elev 577 ft 41.58 °N, 73.04 °W | Updated 41 seconds ago

Overcast
Overcast
34.0 °F
Feels Like 34 °F
N
0.0
Wind Variable Wind from North
Gusts 5.0 mph

Today
High -- | Low -- °F
--% Chance of Precip.
Yesterday
High -- | Low -- °F
Precip. -- in
Pressure 29.56 in
Visibility 10.0 miles
Clouds Scattered Clouds 1200 ft
Overcast 3800 ft
Windchill 34 °F
Dew Point 30 °F
Humidity 86%
Rainfall 0.00 in
Snow Depth Not available.
6:54 AM 5:18 PM
Waxing Crescent, 6% visible
SPECI KOXC 101715Z 32005KT 10SM SCT012 OVC038 01/M06 A2956
Pressure 29.56 in
Visibility 10.0 miles
Clouds Scattered Clouds 1200 ft
Overcast 3800 ft
Windchill 34 °F
Dew Point 30 °F
Humidity 86%
Rainfall 0.00 in
Snow Depth Not available.
6:54 AM 5:18 PM
Waxing Crescent, 6% visible
SPECI KOXC 101715Z 32005KT 10SM SCT012 OVC038 01/M06 A2956

10-Day Weather Forecast

Almanac

Astronomy

Feb. 10, 2016 Rise Set
Actual Time
Civil Twilight
Nautical Twilight
Astronomical Twilight
Moon
Length of Visible Light
Length of Day
Tomorrow will be .
, % of the Moon is Illuminated

Today's Extremes

State Highs State Lows

Community

WunderPhotos

Upload Photos

1,891,898 photos uploaded!

WunderBlog® & News

Nearby

Air Quality

  Air Quality AQ Index Pollutant
Not available.

Snow Depth

Station Depth Elevation

Earthquake Activity

City Distance Mag. Time & Date
Minimum magnitude displayed is 2.5.

Coastal Water Temperatures

Place Temperature

Stations

Nearby Weather Stations

Station Location Temp. Windchill Dew Point Humidity Wind Precip. Elev Updated Type
                   

Watches & Warnings

There are currently no watches in effect.